Startpagina
METAR-TAF:

METAR-TAF

Vliegvelden :

Figari, Frankrijk

breedte: 41-30N, lengte: 009-06E, hoogte: 26 m

Actueel weer

Dit bericht is 36 minuten geleden gemaakt, om 09:30 UTC
Wind 10 kt uit het zuidwesten, variërend tussen het zuidzuidoosten en het westzuidwesten
Temperatuur 29°C
Vochtigheid 55%
Druk 1016 hPa
Zicht 10 km of meer
geen wolken onder 1500 m en geen cumulonimbus

METAR: LFKF 120930Z AUTO 23010KT 160V250 CAVOK 29/19 Q1016 NOSIG

Tijdstip: 12:06 (10:06 UTC)

Verwachting

Dit bericht is 2 uur en het 6 minuten geleden gemaakt, om 08:00 UTC
Verwachting geldig van 12 om 09 UTC tot 13 om 09 UTC
Wind 10 kt uit het westzuidwesten
Zicht 10 km of meer
geen wolken onder 1500 m en geen cumulonimbus
Wijzigt naar
van 12 om 17 UTC tot 12 om 20 UTC
Wind 4 kt uit het noordoosten

TAF: LFKF 120800Z 1209/1309 24010KT CAVOK BECMG 1217/1220 05004KT

Waarnemingen en weersverwachtingen van meer dan 4000 vliegvelden (METAR en TAF).

De beschikbare stations zijn de gele en rode punten op de kaart.

Ga met uw muis naar het station om de naam te zien.

Klik dan om waarnemingen en weersverwachtingen te zien.

kaart wijzigen: klik op de groene knoppen met een zwart kruis om in te zoomen, op de groene knop met een streepje om uit te zoomen of op de groene pijlen voor aangrenzende kaarten.


METAR-TAF: